Time;durP1;ratioP1;P1;durP2;ratioP2;P2;SDS_P1;SDS_P2;PMS_P1;PMS_P2;Temp;Humidity;BMP_temperature;BMP_pressure;BME280_temperature;BME280_humidity;BME280_pressure;Samples;Min_cycle;Max_cycle;Signal;HPM_P1;HPM_P2
2020/12/14 00:02:21;;;;;;;3.60;1.03;;;6.40;99.90;;;;;;5106946;28;20212;-89
2020/12/14 00:04:54;;;;;;;3.17;0.90;;;6.50;99.90;;;;;;5103131;28;20309;-89
2020/12/14 00:10:21;;;;;;;4.27;0.97;;;6.50;99.90;;;;;;5107382;28;20274;-89
2020/12/14 00:12:55;;;;;;;1.00;0.80;;;6.50;99.90;;;;;;5101236;28;20217;-89
2020/12/14 00:18:13;;;;;;;2.10;1.77;;;6.70;99.90;;;;;;5102914;28;20217;-88
2020/12/14 00:20:44;;;;;;;1.77;1.30;;;6.70;99.90;;;;;;5097012;28;20223;-87
2020/12/14 00:23:28;;;;;;;2.03;1.60;;;6.60;99.90;;;;;;5103736;28;20203;-89
2020/12/14 00:26:10;;;;;;;2.93;1.70;;;6.70;99.90;;;;;;5105072;28;20219;-88
2020/12/14 00:28:49;;;;;;;1.77;1.23;;;6.70;99.90;;;;;;5106249;28;20235;-92
2020/12/14 00:31:24;;;;;;;3.40;1.67;;;6.70;99.90;;;;;;5084727;28;20203;-94
2020/12/14 00:33:57;;;;;;;3.40;1.57;;;6.70;99.90;;;;;;5098586;28;20727;-94
2020/12/14 00:36:28;;;;;;;3.47;1.40;;;6.60;99.90;;;;;;5108484;28;20271;-92
2020/12/14 00:41:47;;;;;;;3.30;1.87;;;6.60;99.90;;;;;;5114242;28;20231;-93
2020/12/14 00:44:25;;;;;;;1.50;1.40;;;6.60;99.90;;;;;;4909141;22;10002159;-95
2020/12/14 00:46:59;;;;;;;6.83;5.30;;;6.60;99.90;;;;;;5075097;28;20200;-93
2020/12/14 00:49:35;;;;;;;28.50;24.60;;;6.60;99.90;;;;;;5073986;28;20190;-90
2020/12/14 00:52:22;;;;;;;47.03;41.33;;;6.60;99.90;;;;;;5073396;28;20230;-93
2020/12/14 00:54:57;;;;;;;18.90;16.87;;;6.60;99.90;;;;;;5071548;28;20206;-92
2020/12/14 00:57:34;;;;;;;4.37;3.20;;;6.60;99.90;;;;;;5073858;28;20915;-91
2020/12/14 01:00:10;;;;;;;3.00;2.40;;;6.60;99.90;;;;;;5075362;28;20208;-92
2020/12/14 01:05:25;;;;;;;2.40;2.10;;;6.50;99.90;;;;;;5128295;22;20237;-89
2020/12/14 01:07:56;;;;;;;2.33;2.10;;;6.40;99.90;;;;;;5042393;28;20193;-90
2020/12/14 01:10:29;;;;;;;3.30;2.33;;;6.40;99.90;;;;;;5152549;23;20200;-88
2020/12/14 01:23:41;;;;;;;3.07;1.73;;;6.20;99.90;;;;;;5047010;28;20199;-91
2020/12/14 01:36:58;;;;;;;2.23;1.70;;;6.00;99.90;;;;;;5014113;28;20221;-94
2020/12/14 01:45:40;;;;;;;3.30;1.60;;;6.00;99.90;;;;;;5025310;28;20193;-96
2020/12/14 01:48:14;;;;;;;1.47;1.20;;;6.00;99.90;;;;;;5032975;28;20208;-93
2020/12/14 01:50:44;;;;;;;1.40;1.20;;;5.90;99.90;;;;;;5030590;28;20258;-94
2020/12/14 01:53:31;;;;;;;3.17;1.60;;;5.90;99.90;;;;;;5027216;28;20209;-95
2020/12/14 01:56:05;;;;;;;1.93;1.73;;;5.90;99.90;;;;;;5021228;28;20307;-88
2020/12/14 01:58:38;;;;;;;3.10;2.10;;;5.90;99.90;;;;;;5022685;28;20209;-88
2020/12/14 02:01:10;;;;;;;3.07;2.27;;;6.00;99.90;;;;;;5012921;28;20225;-89
2020/12/14 02:03:46;;;;;;;5.63;2.80;;;5.90;99.90;;;;;;5016972;28;20392;-88
2020/12/14 02:06:19;;;;;;;5.37;2.40;;;5.90;99.90;;;;;;5017683;28;20228;-90
2020/12/14 02:09:00;;;;;;;4.47;2.20;;;5.90;99.90;;;;;;5020995;28;20209;-87
2020/12/14 02:11:57;;;;;;;3.87;2.37;;;5.90;99.90;;;;;;5018981;28;20213;-90
2020/12/14 02:14:37;;;;;;;4.50;2.90;;;5.80;99.90;;;;;;5019363;28;20221;-91
2020/12/14 02:17:25;;;;;;;4.30;2.80;;;5.80;99.90;;;;;;5025344;28;20245;-88
2020/12/14 02:19:58;;;;;;;5.00;2.90;;;5.80;99.90;;;;;;5016452;28;20220;-87
2020/12/14 02:22:32;;;;;;;4.67;2.87;;;5.70;99.90;;;;;;5015483;28;20702;-88
2020/12/14 02:25:15;;;;;;;3.27;2.40;;;5.70;99.90;;;;;;5017846;28;20213;-87
2020/12/14 02:27:53;;;;;;;6.23;2.37;;;5.70;99.90;;;;;;5016276;28;20201;-90
2020/12/14 02:30:24;;;;;;;4.70;2.37;;;5.70;99.90;;;;;;5018806;28;20209;-88
2020/12/14 02:32:57;;;;;;;5.87;2.20;;;5.70;99.90;;;;;;5023997;28;20205;-91
2020/12/14 02:35:29;;;;;;;5.53;2.30;;;5.70;99.90;;;;;;5018137;28;20217;-89
2020/12/14 02:43:28;;;;;;;4.17;2.20;;;5.80;99.90;;;;;;5356368;23;20237;-92
2020/12/14 02:46:00;;;;;;;5.33;2.53;;;5.80;99.90;;;;;;5036337;28;20708;-87
2020/12/14 02:48:32;;;;;;;4.90;2.07;;;5.80;99.90;;;;;;5031060;28;20213;-88
2020/12/14 02:51:03;;;;;;;5.37;2.70;;;5.80;99.90;;;;;;5033345;28;20213;-88
2020/12/14 02:56:29;;;;;;;4.50;2.70;;;5.70;99.90;;;;;;5071514;27;2118491;-87
2020/12/14 02:59:01;;;;;;;3.60;2.80;;;5.70;99.90;;;;;;5121504;28;20251;-86
2020/12/14 03:01:32;;;;;;;8.33;2.90;;;5.60;99.90;;;;;;5123008;28;20206;-87
2020/12/14 03:04:03;;;;;;;4.13;2.90;;;5.60;99.90;;;;;;5129855;27;20239;-86
2020/12/14 03:06:34;;;;;;;6.80;3.20;;;5.60;99.90;;;;;;5123704;27;20250;-86
2020/12/14 03:09:08;;;;;;;5.57;3.27;;;5.60;99.90;;;;;;5127943;27;20222;-87
2020/12/14 03:11:41;;;;;;;5.00;2.60;;;5.70;99.90;;;;;;5156274;22;20218;-88
2020/12/14 03:14:26;;;;;;;4.70;3.10;;;5.70;99.90;;;;;;5057480;28;20232;-86
2020/12/14 03:16:58;;;;;;;4.90;2.50;;;5.60;99.90;;;;;;5049959;28;20201;-87
2020/12/14 03:19:30;;;;;;;6.97;2.90;;;5.60;99.90;;;;;;5059137;28;20212;-86
2020/12/14 03:22:02;;;;;;;4.27;2.40;;;5.60;99.90;;;;;;5050757;28;20208;-87
2020/12/14 03:24:33;;;;;;;5.40;2.70;;;5.50;99.90;;;;;;5055168;28;20223;-86
2020/12/14 03:27:09;;;;;;;5.37;2.40;;;5.50;99.90;;;;;;5050157;28;20227;-92
2020/12/14 03:29:40;;;;;;;4.33;2.60;;;5.40;99.90;;;;;;5048554;28;20213;-93
2020/12/14 03:32:12;;;;;;;4.33;2.60;;;5.40;99.90;;;;;;5049864;28;20208;-92
2020/12/14 03:34:45;;;;;;;4.73;3.07;;;5.30;99.90;;;;;;5053311;28;20658;-88
2020/12/14 03:37:15;;;;;;;4.13;2.60;;;5.30;99.90;;;;;;5046663;28;20192;-89
2020/12/14 03:39:47;;;;;;;3.60;2.40;;;5.20;99.90;;;;;;5051462;28;20228;-88
2020/12/14 03:42:20;;;;;;;3.40;2.30;;;5.20;99.90;;;;;;5047869;28;20240;-86
2020/12/14 03:44:51;;;;;;;5.77;2.60;;;5.10;99.90;;;;;;5051738;28;20707;-87
2020/12/14 03:47:21;;;;;;;7.03;3.23;;;5.00;99.90;;;;;;5049983;28;20287;-88
2020/12/14 03:49:52;;;;;;;6.20;2.80;;;5.00;99.90;;;;;;5045628;28;20258;-87
2020/12/14 03:52:24;;;;;;;7.80;3.30;;;4.90;99.90;;;;;;5045175;28;20240;-90
2020/12/14 03:54:56;;;;;;;5.53;3.23;;;4.80;99.90;;;;;;5050782;28;20232;-88
2020/12/14 03:57:32;;;;;;;7.77;3.50;;;4.80;99.90;;;;;;5047278;28;20539;-87
2020/12/14 04:00:03;;;;;;;8.97;4.43;;;4.80;99.90;;;;;;5049150;28;20211;-88
2020/12/14 04:02:35;;;;;;;11.50;6.60;;;4.80;99.90;;;;;;5045045;28;20216;-88
2020/12/14 04:05:07;;;;;;;13.17;7.37;;;4.80;99.90;;;;;;5045513;28;20257;-87
2020/12/14 04:07:37;;;;;;;11.80;7.63;;;4.90;99.90;;;;;;5040536;28;20213;-87
2020/12/14 04:10:09;;;;;;;11.67;7.30;;;5.00;99.90;;;;;;5038089;28;20492;-87
2020/12/14 04:12:41;;;;;;;9.47;4.97;;;5.10;99.90;;;;;;5035704;28;20213;-87
2020/12/14 04:15:14;;;;;;;11.43;6.33;;;5.30;99.90;;;;;;5034963;28;20209;-87
2020/12/14 04:17:47;;;;;;;11.00;6.00;;;5.30;99.90;;;;;;5034987;28;20283;-87
2020/12/14 04:20:18;;;;;;;12.33;5.50;;;5.40;99.90;;;;;;5034588;28;20205;-87
2020/12/14 04:22:51;;;;;;;9.87;5.37;;;5.40;99.90;;;;;;5037087;28;20268;-87
2020/12/14 04:25:21;;;;;;;11.63;5.67;;;5.40;99.90;;;;;;5035043;28;20229;-87
2020/12/14 04:28:03;;;;;;;12.17;5.97;;;5.40;99.90;;;;;;5030622;28;20244;-87
2020/12/14 04:30:36;;;;;;;9.97;5.03;;;5.30;99.90;;;;;;5036050;28;20201;-87
2020/12/14 04:33:09;;;;;;;8.07;4.93;;;5.30;99.90;;;;;;5039414;28;20272;-87
2020/12/14 04:35:41;;;;;;;8.23;4.77;;;5.30;99.90;;;;;;5038064;28;20528;-88
2020/12/14 04:38:15;;;;;;;6.00;3.90;;;5.20;99.90;;;;;;5034500;28;20212;-88
2020/12/14 04:40:51;;;;;;;7.33;4.03;;;5.20;99.90;;;;;;5032087;28;20233;-88
2020/12/14 04:43:24;;;;;;;6.60;3.77;;;5.20;99.90;;;;;;5031677;28;20213;-87
2020/12/14 04:46:08;;;;;;;4.77;3.40;;;5.20;99.90;;;;;;5038187;28;20240;-87
2020/12/14 04:48:41;;;;;;;7.10;3.17;;;5.20;99.90;;;;;;5033876;28;20217;-88
2020/12/14 04:51:14;;;;;;;6.57;3.60;;;5.30;99.90;;;;;;5037041;28;20263;-89
2020/12/14 04:53:48;;;;;;;7.70;3.40;;;5.50;99.90;;;;;;5035935;28;20202;-86
2020/12/14 04:56:30;;;;;;;3.53;2.97;;;5.50;99.90;;;;;;5036107;28;20229;-87
2020/12/14 04:59:11;;;;;;;5.87;3.00;;;5.50;99.90;;;;;;5035742;28;20217;-86
2020/12/14 05:01:44;;;;;;;5.30;2.20;;;5.50;99.90;;;;;;5032440;28;20208;-86
2020/12/14 05:04:17;;;;;;;6.47;2.60;;;5.60;99.90;;;;;;5032888;28;20240;-86
2020/12/14 05:10:03;;;;;;;4.63;1.47;;;5.80;99.90;;;;;;5037205;28;20213;-86
2020/12/14 05:12:39;;;;;;;7.80;2.00;;;5.80;99.90;;;;;;5031731;28;20208;-86
2020/12/14 05:15:26;;;;;;;5.43;1.90;;;5.80;99.90;;;;;;5033119;28;20214;-86
2020/12/14 05:18:11;;;;;;;5.63;2.10;;;5.70;99.90;;;;;;5032975;28;20265;-85
2020/12/14 05:20:42;;;;;;;7.33;2.53;;;5.70;99.90;;;;;;5034997;28;20220;-86
2020/12/14 05:23:13;;;;;;;6.80;2.50;;;5.80;99.90;;;;;;4678470;28;10000496;-87
2020/12/14 05:25:44;;;;;;;5.77;2.07;;;5.70;99.90;;;;;;5039288;28;20343;-87
2020/12/14 05:28:19;;;;;;;5.97;2.20;;;5.70;99.90;;;;;;5038550;28;20225;-87
2020/12/14 05:30:52;;;;;;;5.73;2.20;;;5.60;99.90;;;;;;5034503;28;20205;-88
2020/12/14 05:33:24;;;;;;;5.03;2.50;;;5.50;99.90;;;;;;5032614;28;20296;-88
2020/12/14 05:35:55;;;;;;;5.73;2.73;;;5.50;99.90;;;;;;5036586;28;20227;-87
2020/12/14 05:38:28;;;;;;;7.03;3.50;;;5.40;99.90;;;;;;5034906;28;20208;-88
2020/12/14 05:41:00;;;;;;;3.87;2.40;;;5.40;99.90;;;;;;5032397;28;20284;-87
2020/12/14 05:43:42;;;;;;;7.90;2.43;;;5.40;99.90;;;;;;5043128;28;20226;-89
2020/12/14 05:46:20;;;;;;;6.80;3.30;;;5.40;99.90;;;;;;5037605;28;20232;-89
2020/12/14 05:49:08;;;;;;;7.80;3.17;;;5.40;99.90;;;;;;5034627;28;20213;-88
2020/12/14 05:51:43;;;;;;;6.13;3.03;;;5.30;99.90;;;;;;5034331;28;20267;-90
2020/12/14 05:54:23;;;;;;;7.43;3.83;;;5.30;99.90;;;;;;5034593;28;20259;-88
2020/12/14 05:56:58;;;;;;;8.07;4.07;;;5.30;99.90;;;;;;5039309;28;20232;-88
2020/12/14 06:00:16;;;;;;;8.63;3.47;;;5.20;99.90;;;;;;5041990;28;20223;-90
2020/12/14 06:03:10;;;;;;;3.83;1.97;;;5.20;99.90;;;;;;5043791;28;20198;-90
2020/12/14 06:05:54;;;;;;;6.07;2.50;;;5.30;99.90;;;;;;5038211;28;20316;-89
2020/12/14 06:09:04;;;;;;;4.20;1.70;;;5.50;99.90;;;;;;5039026;28;20213;-88
2020/12/14 06:11:39;;;;;;;3.97;1.93;;;5.50;99.90;;;;;;5036964;28;20196;-90
2020/12/14 06:14:17;;;;;;;4.10;1.70;;;5.80;99.90;;;;;;5039821;28;20568;-89
2020/12/14 06:16:49;;;;;;;2.57;1.20;;;5.80;99.90;;;;;;5040520;28;20208;-92
2020/12/14 06:19:22;;;;;;;8.70;1.90;;;5.80;99.90;;;;;;5040088;28;20212;-93
2020/12/14 06:22:02;;;;;;;6.33;1.40;;;5.80;99.90;;;;;;5040786;28;20456;-95
2020/12/14 06:24:43;;;;;;;3.87;1.47;;;5.90;99.90;;;;;;5039275;28;20212;-93
2020/12/14 06:27:29;;;;;;;2.87;1.10;;;5.90;99.90;;;;;;5039724;28;20204;-96
2020/12/14 06:30:01;;;;;;;4.67;1.60;;;6.00;99.90;;;;;;5042993;28;20235;-89
2020/12/14 06:32:39;;;;;;;4.43;1.30;;;6.10;99.90;;;;;;5033955;28;20209;-89
2020/12/14 06:35:19;;;;;;;3.23;1.07;;;6.20;99.90;;;;;;5039418;28;20216;-89
2020/12/14 06:37:51;;;;;;;4.07;1.40;;;6.10;99.90;;;;;;5033704;28;20228;-87
2020/12/14 06:40:23;;;;;;;5.87;1.67;;;6.20;99.90;;;;;;5036613;28;20288;-88
2020/12/14 06:43:21;;;;;;;3.50;1.70;;;6.20;99.90;;;;;;5035057;28;20283;-90
2020/12/14 06:46:13;;;;;;;6.43;1.40;;;6.20;99.90;;;;;;5039189;28;20256;-89
2020/12/14 06:48:59;;;;;;;4.30;1.33;;;6.20;99.90;;;;;;5038604;28;20198;-89
2020/12/14 06:52:11;;;;;;;3.67;1.00;;;6.20;99.90;;;;;;5033204;28;20213;-90
2020/12/14 06:54:57;;;;;;;5.03;1.27;;;6.30;99.90;;;;;;5043449;28;20209;-90
2020/12/14 06:57:44;;;;;;;2.23;1.07;;;6.40;99.90;;;;;;5045698;28;20205;-88
2020/12/14 07:00:32;;;;;;;3.80;1.20;;;6.40;99.90;;;;;;5041984;28;20208;-87
2020/12/14 07:03:04;;;;;;;3.37;1.10;;;6.40;99.90;;;;;;5043829;28;20231;-88
2020/12/14 07:11:54;;;;;;;3.40;1.20;;;6.50;99.90;;;;;;5043875;28;20717;-89
2020/12/14 07:14:45;;;;;;;4.37;1.10;;;6.40;99.90;;;;;;5025411;28;20271;-87
2020/12/14 07:17:20;;;;;;;3.33;1.10;;;6.50;99.90;;;;;;5032547;28;20195;-88
2020/12/14 07:19:52;;;;;;;3.60;1.00;;;6.50;99.90;;;;;;5043525;28;20208;-87
2020/12/14 07:22:24;;;;;;;3.23;0.80;;;6.40;99.90;;;;;;5026925;28;20201;-87
2020/12/14 07:25:04;;;;;;;3.13;1.23;;;6.40;99.90;;;;;;5034896;28;20197;-87
2020/12/14 07:27:35;;;;;;;4.47;1.10;;;6.50;99.90;;;;;;5033452;28;20545;-88
2020/12/14 07:30:07;;;;;;;3.33;0.93;;;6.50;99.90;;;;;;5043268;28;20239;-87
2020/12/14 07:32:39;;;;;;;2.97;1.00;;;6.60;99.90;;;;;;5036830;28;20304;-88
2020/12/14 07:35:12;;;;;;;4.23;0.90;;;6.60;99.90;;;;;;5045421;28;20265;-87
2020/12/14 07:37:43;;;;;;;2.50;0.77;;;6.70;99.90;;;;;;5064305;28;20212;-88
2020/12/14 07:43:54;;;;;;;3.27;0.87;;;6.70;99.90;;;;;;5044077;28;20196;-88
2020/12/14 07:46:47;;;;;;;5.10;1.50;;;6.70;99.90;;;;;;5029749;28;20241;-89
2020/12/14 07:52:46;;;;;;;3.73;1.20;;;6.70;99.90;;;;;;5043386;28;20251;-87
2020/12/14 07:55:43;;;;;;;5.43;1.57;;;6.70;99.90;;;;;;5048300;28;20213;-89
2020/12/14 07:58:37;;;;;;;2.80;0.90;;;6.70;99.90;;;;;;5035232;28;20624;-88
2020/12/14 08:01:22;;;;;;;3.87;1.03;;;6.70;99.90;;;;;;5037994;28;20225;-87
2020/12/14 08:04:42;;;;;;;2.47;1.00;;;6.60;99.90;;;;;;5044719;28;20209;-88
2020/12/14 08:11:29;;;;;;;7.47;1.40;;;6.70;99.90;;;;;;5046268;28;20208;-88
2020/12/14 08:14:15;;;;;;;3.83;1.10;;;6.70;99.90;;;;;;5048348;28;20200;-88
2020/12/14 08:16:47;;;;;;;3.00;1.10;;;6.60;99.90;;;;;;5030058;28;20241;-87
2020/12/14 08:22:10;;;;;;;4.60;1.43;;;6.60;99.90;;;;;;5028341;28;20264;-88
2020/12/14 08:24:44;;;;;;;3.67;1.40;;;6.60;99.90;;;;;;5030367;28;20281;-89
2020/12/14 08:27:35;;;;;;;4.80;1.27;;;6.60;99.90;;;;;;5041677;28;20216;-88
2020/12/14 08:30:08;;;;;;;4.40;1.40;;;6.60;99.90;;;;;;5029029;28;20233;-89
2020/12/14 08:32:47;;;;;;;5.13;1.30;;;6.60;99.90;;;;;;5037425;28;20304;-88
2020/12/14 08:35:25;;;;;;;5.87;1.50;;;6.60;99.90;;;;;;5043489;28;20210;-88
2020/12/14 08:38:03;;;;;;;3.63;1.40;;;6.60;99.90;;;;;;5046999;28;20231;-88
2020/12/14 08:40:35;;;;;;;5.13;1.47;;;6.50;99.90;;;;;;5046940;28;20209;-89
2020/12/14 08:43:14;;;;;;;6.37;1.50;;;6.50;99.90;;;;;;5044128;28;20224;-89
2020/12/14 08:46:00;;;;;;;2.50;1.30;;;6.50;99.90;;;;;;5045768;28;20330;-88
2020/12/14 08:48:32;;;;;;;7.13;1.67;;;6.50;99.90;;;;;;5044919;28;20525;-87
2020/12/14 08:51:09;;;;;;;6.07;1.20;;;6.50;99.90;;;;;;5044033;28;20264;-89
2020/12/14 08:53:40;;;;;;;3.80;1.30;;;6.50;99.90;;;;;;5049769;28;20318;-88
2020/12/14 08:56:16;;;;;;;4.83;1.30;;;6.50;99.90;;;;;;5054470;28;20219;-88
2020/12/14 08:58:53;;;;;;;5.90;1.63;;;6.50;99.90;;;;;;5056184;28;20188;-88
2020/12/14 09:01:25;;;;;;;5.07;1.30;;;6.50;99.90;;;;;;5046998;28;20212;-88
2020/12/14 09:03:59;;;;;;;6.80;1.73;;;6.50;99.90;;;;;;5039590;28;20236;-88
2020/12/14 09:06:33;;;;;;;3.13;1.50;;;6.50;99.90;;;;;;5039761;28;20223;-88
2020/12/14 09:09:07;;;;;;;4.50;1.67;;;6.50;99.90;;;;;;5032309;28;20201;-88
2020/12/14 09:11:49;;;;;;;3.43;1.50;;;6.60;99.90;;;;;;5037850;28;20204;-90
2020/12/14 09:14:24;;;;;;;5.97;1.63;;;6.60;99.90;;;;;;5039792;28;20228;-88
2020/12/14 09:16:57;;;;;;;5.47;2.27;;;6.60;99.90;;;;;;5027379;28;20635;-89
2020/12/14 09:19:30;;;;;;;7.10;1.57;;;6.60;99.90;;;;;;5042869;28;20211;-87
2020/12/14 09:22:02;;;;;;;5.20;1.50;;;6.60;99.90;;;;;;5062566;28;20202;-87
2020/12/14 09:24:35;;;;;;;4.93;1.40;;;6.60;99.90;;;;;;5056426;28;20649;-88
2020/12/14 09:27:11;;;;;;;7.93;1.77;;;6.60;99.90;;;;;;5030879;28;20244;-89
2020/12/14 09:29:45;;;;;;;4.97;1.50;;;6.60;99.90;;;;;;5045600;28;20657;-88
2020/12/14 09:32:18;;;;;;;5.57;1.47;;;6.50;99.90;;;;;;5044930;28;20200;-87
2020/12/14 09:34:49;;;;;;;2.77;1.20;;;6.50;99.90;;;;;;5050871;28;20210;-87
2020/12/14 09:37:19;;;;;;;6.80;1.53;;;6.50;99.90;;;;;;5044749;28;20213;-87
2020/12/14 09:39:52;;;;;;;4.23;1.50;;;6.50;99.90;;;;;;5057806;28;20254;-87
2020/12/14 09:42:24;;;;;;;2.93;1.47;;;6.50;99.90;;;;;;5043184;28;20213;-87
2020/12/14 09:44:56;;;;;;;8.30;1.43;;;6.40;99.90;;;;;;5066310;28;20205;-88
2020/12/14 09:47:27;;;;;;;3.43;1.50;;;6.40;99.90;;;;;;5051229;28;20225;-88
2020/12/14 09:49:59;;;;;;;6.30;1.90;;;6.40;99.90;;;;;;5046323;28;20228;-87
2020/12/14 09:52:29;;;;;;;2.83;1.57;;;6.40;99.90;;;;;;5029794;28;20305;-87
2020/12/14 09:55:01;;;;;;;4.00;1.63;;;6.40;99.90;;;;;;5034614;28;20232;-88
2020/12/14 09:57:32;;;;;;;4.80;1.83;;;6.40;99.90;;;;;;5027170;28;20245;-88
2020/12/14 10:00:06;;;;;;;8.13;1.97;;;6.40;99.90;;;;;;5040158;28;20200;-88
2020/12/14 10:02:37;;;;;;;6.50;1.50;;;6.40;99.90;;;;;;5045164;28;20629;-89
2020/12/14 10:05:12;;;;;;;4.87;1.60;;;6.40;99.90;;;;;;5028204;28;20248;-88
2020/12/14 10:07:43;;;;;;;4.40;1.33;;;6.40;99.90;;;;;;5043133;28;20208;-88
2020/12/14 10:10:18;;;;;;;8.43;2.10;;;6.40;99.90;;;;;;5043172;28;20265;-88
2020/12/14 10:12:49;;;;;;;8.80;2.37;;;6.40;99.90;;;;;;5043807;28;20220;-88
2020/12/14 10:15:21;;;;;;;4.07;1.80;;;6.40;99.90;;;;;;5042571;28;20205;-88
2020/12/14 10:17:56;;;;;;;4.30;1.37;;;6.40;99.90;;;;;;5040327;28;20215;-88
2020/12/14 10:20:27;;;;;;;4.23;1.43;;;6.40;99.90;;;;;;5044981;28;20215;-88
2020/12/14 10:23:00;;;;;;;8.73;1.70;;;6.40;99.90;;;;;;5043017;28;20213;-89
2020/12/14 10:25:31;;;;;;;3.63;1.60;;;6.40;99.90;;;;;;5044757;28;20193;-88
2020/12/14 10:28:03;;;;;;;8.20;1.90;;;6.40;99.90;;;;;;5042982;28;20225;-87
2020/12/14 10:30:35;;;;;;;3.37;1.27;;;6.40;99.90;;;;;;5025634;28;20232;-88
2020/12/14 10:33:18;;;;;;;3.40;1.57;;;6.40;99.90;;;;;;5043333;28;20204;-89
2020/12/14 10:35:52;;;;;;;5.30;1.70;;;6.40;99.90;;;;;;5042910;28;20213;-89
2020/12/14 10:38:24;;;;;;;3.87;1.40;;;6.40;99.90;;;;;;5038376;28;20264;-88
2020/12/14 10:40:56;;;;;;;3.57;1.60;;;6.40;99.90;;;;;;5041463;28;20292;-89
2020/12/14 10:43:26;;;;;;;5.50;1.20;;;6.40;99.90;;;;;;5054281;28;20196;-88
2020/12/14 10:45:59;;;;;;;2.10;1.27;;;6.40;99.90;;;;;;5031635;28;20298;-88
2020/12/14 10:48:30;;;;;;;6.27;1.63;;;6.40;99.90;;;;;;5045063;28;20204;-86
2020/12/14 10:51:01;;;;;;;2.53;1.30;;;6.30;99.90;;;;;;5045598;28;20201;-89
2020/12/14 10:53:31;;;;;;;7.57;1.43;;;6.30;99.90;;;;;;5042672;28;20238;-87
2020/12/14 10:56:03;;;;;;;4.57;1.43;;;6.30;99.90;;;;;;5033887;28;20658;-87
2020/12/14 11:01:20;;;;;;;4.40;1.20;;;6.40;99.90;;;;;;5032973;28;20216;-88
2020/12/14 11:03:51;;;;;;;8.17;1.50;;;6.40;99.90;;;;;;5042005;28;20209;-88
2020/12/14 11:06:22;;;;;;;6.83;1.60;;;6.40;99.90;;;;;;5050237;28;20254;-89
2020/12/14 11:08:52;;;;;;;5.27;1.80;;;6.40;99.90;;;;;;5051966;28;20225;-88
2020/12/14 11:11:23;;;;;;;6.70;1.60;;;6.30;99.90;;;;;;5034932;28;20272;-87
2020/12/14 11:13:54;;;;;;;8.57;1.80;;;6.30;99.90;;;;;;5044368;28;20224;-88
2020/12/14 11:16:26;;;;;;;4.80;2.00;;;6.40;99.90;;;;;;5045650;28;20891;-88
2020/12/14 11:19:00;;;;;;;10.17;2.13;;;6.40;99.90;;;;;;5054087;28;20203;-87
2020/12/14 11:21:30;;;;;;;6.70;2.13;;;6.30;99.90;;;;;;5049744;28;20210;-88
2020/12/14 11:24:02;;;;;;;3.27;1.50;;;6.30;99.90;;;;;;5045475;28;20231;-87
2020/12/14 11:26:34;;;;;;;6.00;2.20;;;6.30;99.90;;;;;;5035192;28;20259;-88
2020/12/14 11:29:05;;;;;;;5.53;2.10;;;6.20;99.90;;;;;;5048026;28;20237;-87
2020/12/14 11:31:39;;;;;;;4.97;2.10;;;6.30;99.90;;;;;;5046763;28;20216;-90
2020/12/14 11:34:10;;;;;;;5.53;2.40;;;6.30;99.90;;;;;;5034073;28;20212;-88
2020/12/14 11:36:41;;;;;;;4.60;1.90;;;6.30;99.90;;;;;;5047166;28;20225;-87
2020/12/14 11:39:14;;;;;;;4.67;2.00;;;6.30;99.90;;;;;;5035400;28;20583;-88
2020/12/14 11:41:47;;;;;;;7.43;2.47;;;6.40;99.90;;;;;;5037901;28;20209;-88
2020/12/14 11:44:19;;;;;;;6.10;2.47;;;6.40;99.90;;;;;;5047006;28;20201;-88
2020/12/14 11:46:52;;;;;;;6.30;2.70;;;6.40;99.90;;;;;;5049721;28;20713;-89
2020/12/14 11:49:23;;;;;;;4.60;2.70;;;6.40;99.90;;;;;;5042966;28;20252;-89
2020/12/14 11:51:56;;;;;;;5.07;2.30;;;6.40;99.90;;;;;;5028724;28;20485;-89
2020/12/14 11:54:28;;;;;;;6.17;2.20;;;6.40;99.90;;;;;;5031713;28;20623;-89
2020/12/14 11:56:58;;;;;;;4.53;2.47;;;6.40;99.90;;;;;;5032419;28;20210;-89
2020/12/14 11:59:30;;;;;;;8.77;2.63;;;6.40;99.90;;;;;;5028293;28;20215;-87
2020/12/14 12:02:03;;;;;;;4.73;2.40;;;6.40;99.90;;;;;;5039940;28;20213;-89
2020/12/14 12:04:34;;;;;;;6.77;2.67;;;6.40;99.90;;;;;;5037500;28;20271;-87
2020/12/14 12:07:06;;;;;;;4.73;2.40;;;6.40;99.90;;;;;;5054819;28;20228;-88
2020/12/14 12:09:37;;;;;;;7.17;2.57;;;6.40;99.90;;;;;;5068136;28;20243;-89
2020/12/14 12:12:08;;;;;;;8.40;2.80;;;6.40;99.90;;;;;;5037906;28;20221;-89
2020/12/14 12:14:39;;;;;;;5.80;2.23;;;6.50;99.90;;;;;;5052324;28;20209;-88
2020/12/14 12:17:12;;;;;;;8.03;3.23;;;6.50;99.90;;;;;;5046446;28;20216;-88
2020/12/14 12:19:42;;;;;;;7.07;2.97;;;6.50;99.90;;;;;;5047304;28;20220;-88
2020/12/14 12:22:14;;;;;;;4.03;2.53;;;6.50;99.90;;;;;;5040971;28;20217;-91
2020/12/14 12:24:45;;;;;;;6.13;2.63;;;6.50;99.90;;;;;;5027734;28;20698;-88
2020/12/14 12:27:17;;;;;;;6.53;2.43;;;6.50;99.90;;;;;;5027321;28;20245;-88
2020/12/14 12:29:48;;;;;;;6.70;2.60;;;6.50;99.90;;;;;;5046501;28;20208;-88
2020/12/14 12:32:21;;;;;;;5.93;2.47;;;6.50;99.90;;;;;;5046415;28;20201;-88
2020/12/14 12:34:52;;;;;;;6.37;2.47;;;6.50;99.90;;;;;;5047379;28;20289;-88
2020/12/14 12:37:22;;;;;;;7.07;2.20;;;6.50;99.90;;;;;;5047254;28;20224;-89
2020/12/14 12:39:53;;;;;;;5.53;2.57;;;6.50;99.90;;;;;;5048130;28;20239;-88
2020/12/14 12:42:23;;;;;;;5.40;2.93;;;6.50;99.90;;;;;;5045990;28;20277;-89
2020/12/14 12:44:57;;;;;;;9.50;2.93;;;6.50;99.90;;;;;;5047425;28;20205;-88
2020/12/14 12:47:29;;;;;;;6.03;2.57;;;6.50;99.90;;;;;;5047192;28;20228;-88
2020/12/14 12:50:01;;;;;;;9.13;2.90;;;6.60;99.90;;;;;;5030063;28;20220;-90
2020/12/14 12:52:33;;;;;;;7.53;3.17;;;6.60;99.90;;;;;;5026324;28;20217;-89
2020/12/14 12:55:03;;;;;;;6.93;2.83;;;6.50;99.90;;;;;;5039051;28;20205;-89
2020/12/14 12:57:40;;;;;;;4.90;2.53;;;6.60;99.90;;;;;;5038034;28;20219;-89
2020/12/14 13:00:12;;;;;;;5.70;3.00;;;6.60;99.90;;;;;;5029182;28;20214;-87
2020/12/14 13:02:47;;;;;;;6.83;2.70;;;6.50;99.90;;;;;;5045857;28;20239;-88
2020/12/14 13:05:19;;;;;;;5.20;2.80;;;6.50;99.90;;;;;;5054913;28;20196;-88
2020/12/14 13:07:51;;;;;;;7.53;3.30;;;6.50;99.90;;;;;;5031343;28;20233;-88
2020/12/14 13:10:23;;;;;;;6.20;3.00;;;6.50;99.90;;;;;;5056490;28;20292;-88
2020/12/14 13:13:03;;;;;;;6.23;2.70;;;6.50;99.90;;;;;;5050766;28;20655;-87
2020/12/14 13:15:37;;;;;;;6.90;3.43;;;6.60;99.90;;;;;;5050967;28;20232;-88
2020/12/14 13:18:10;;;;;;;6.93;2.70;;;6.50;99.90;;;;;;5049785;28;20204;-87
2020/12/14 13:20:41;;;;;;;10.23;3.00;;;6.60;99.90;;;;;;5066612;28;20200;-88
2020/12/14 13:23:14;;;;;;;6.20;2.80;;;6.50;99.90;;;;;;5041629;28;20273;-87
2020/12/14 13:25:47;;;;;;;5.83;2.83;;;6.60;99.90;;;;;;5028444;28;20262;-90
2020/12/14 13:28:19;;;;;;;10.07;3.30;;;6.50;99.90;;;;;;5038590;28;20245;-89
2020/12/14 13:31:00;;;;;;;7.07;3.20;;;6.50;99.90;;;;;;5047366;28;20205;-88
2020/12/14 13:33:37;;;;;;;6.77;2.77;;;6.50;99.90;;;;;;5034553;28;20221;-88
2020/12/14 13:36:11;;;;;;;9.37;3.50;;;6.60;99.90;;;;;;5034459;28;20188;-88
2020/12/14 13:38:47;;;;;;;7.40;2.50;;;6.50;99.90;;;;;;5046175;28;20565;-88
2020/12/14 13:41:20;;;;;;;7.20;2.70;;;6.60;99.90;;;;;;5032945;28;20231;-87
2020/12/14 13:43:51;;;;;;;11.97;3.03;;;6.50;99.90;;;;;;5045188;28;20231;-87
2020/12/14 13:46:22;;;;;;;9.63;3.50;;;6.50;99.90;;;;;;5046154;28;20228;-88
2020/12/14 13:48:54;;;;;;;8.43;3.57;;;6.60;99.90;;;;;;5046630;28;20212;-87
2020/12/14 13:51:27;;;;;;;6.17;3.03;;;6.60;99.90;;;;;;5044254;28;20201;-88
2020/12/14 13:53:57;;;;;;;9.57;3.53;;;6.60;99.90;;;;;;5045272;28;20247;-88
2020/12/14 13:56:27;;;;;;;7.70;3.53;;;6.60;99.90;;;;;;5046100;28;20212;-88
2020/12/14 13:58:58;;;;;;;6.63;3.57;;;6.60;99.90;;;;;;5045920;28;20209;-88
2020/12/14 14:01:28;;;;;;;8.77;3.80;;;6.60;99.90;;;;;;5046153;28;20205;-87
2020/12/14 14:04:01;;;;;;;9.07;3.63;;;6.50;99.90;;;;;;5045495;28;20224;-87
2020/12/14 14:06:31;;;;;;;7.13;3.80;;;6.60;99.90;;;;;;5047613;28;20251;-87
2020/12/14 14:09:02;;;;;;;11.47;4.13;;;6.60;99.90;;;;;;5046210;28;20621;-88
2020/12/14 14:11:32;;;;;;;7.77;4.00;;;6.60;99.90;;;;;;5044249;28;20212;-87
2020/12/14 14:14:11;;;;;;;9.33;4.00;;;6.60;99.90;;;;;;5039717;28;20277;-88
2020/12/14 14:16:43;;;;;;;8.33;4.33;;;6.60;99.90;;;;;;5045112;28;20208;-87
2020/12/14 14:19:16;;;;;;;11.93;4.20;;;6.60;99.90;;;;;;5036795;28;20201;-87
2020/12/14 14:21:48;;;;;;;9.40;3.97;;;6.60;99.90;;;;;;5045957;28;20200;-87
2020/12/14 14:24:20;;;;;;;6.07;4.00;;;6.60;99.90;;;;;;5045584;28;20216;-87
2020/12/14 14:26:53;;;;;;;10.57;4.73;;;6.60;99.90;;;;;;5045919;28;20247;-86
2020/12/14 14:29:28;;;;;;;7.77;4.13;;;6.60;99.90;;;;;;5045507;28;20337;-86
2020/12/14 14:31:59;;;;;;;9.00;4.50;;;6.60;99.90;;;;;;5034934;28;20228;-88
2020/12/14 14:34:33;;;;;;;7.27;4.63;;;6.60;99.90;;;;;;5027980;28;20658;-88
2020/12/14 14:37:06;;;;;;;13.20;4.60;;;6.60;99.90;;;;;;5045611;28;20232;-88
2020/12/14 14:39:37;;;;;;;8.50;5.60;;;6.60;99.90;;;;;;5046000;28;20895;-87
2020/12/14 14:42:08;;;;;;;8.70;4.70;;;6.70;99.90;;;;;;5041949;28;20224;-88
2020/12/14 14:44:43;;;;;;;10.93;5.30;;;6.60;99.90;;;;;;5028994;28;20217;-89
2020/12/14 14:47:15;;;;;;;11.13;5.30;;;6.60;99.90;;;;;;5043103;28;20233;-88
2020/12/14 14:49:48;;;;;;;9.57;5.27;;;6.70;99.90;;;;;;5043133;28;20202;-90